sensor_id;sensor_type;location;lat;lon;timestamp;P1;durP1;ratioP1;P2;durP2;ratioP2
934;SDS011;454;53.254;10.400;2024-02-26T05:02:36;4.57;;;3.95;;
934;SDS011;454;53.254;10.400;2024-02-26T05:05:04;3.92;;;3.60;;
934;SDS011;454;53.254;10.400;2024-02-26T05:07:31;4.80;;;4.28;;
934;SDS011;454;53.254;10.400;2024-02-26T05:09:57;6.28;;;4.28;;
934;SDS011;454;53.254;10.400;2024-02-26T05:12:24;4.25;;;3.50;;
934;SDS011;454;53.254;10.400;2024-02-26T05:14:51;5.93;;;3.25;;
934;SDS011;454;53.254;10.400;2024-02-26T05:17:17;3.80;;;3.50;;
934;SDS011;454;53.254;10.400;2024-02-26T05:19:45;4.22;;;2.58;;
934;SDS011;454;53.254;10.400;2024-02-26T05:22:12;3.13;;;2.92;;
934;SDS011;454;53.254;10.400;2024-02-26T05:24:39;4.28;;;3.90;;
934;SDS011;454;53.254;10.400;2024-02-26T05:27:05;10.45;;;3.83;;
934;SDS011;454;53.254;10.400;2024-02-26T05:29:32;6.40;;;5.80;;
934;SDS011;454;53.254;10.400;2024-02-26T05:31:59;5.78;;;5.45;;
934;SDS011;454;53.254;10.400;2024-02-26T05:34:26;3.65;;;3.00;;
934;SDS011;454;53.254;10.400;2024-02-26T05:36:54;6.38;;;5.25;;
934;SDS011;454;53.254;10.400;2024-02-26T05:39:20;4.18;;;3.92;;
934;SDS011;454;53.254;10.400;2024-02-26T05:41:47;4.53;;;3.50;;
934;SDS011;454;53.254;10.400;2024-02-26T05:44:14;3.20;;;3.05;;
934;SDS011;454;53.254;10.400;2024-02-26T05:46:41;5.72;;;5.13;;
934;SDS011;454;53.254;10.400;2024-02-26T05:49:08;6.50;;;4.00;;
934;SDS011;454;53.254;10.400;2024-02-26T05:51:35;5.32;;;4.80;;
934;SDS011;454;53.254;10.400;2024-02-26T05:54:03;4.70;;;4.35;;
934;SDS011;454;53.254;10.400;2024-02-26T05:56:29;5.30;;;3.50;;
934;SDS011;454;53.254;10.400;2024-02-26T05:58:56;7.45;;;5.10;;
934;SDS011;454;53.254;10.400;2024-02-26T06:01:23;5.05;;;4.68;;
934;SDS011;454;53.254;10.400;2024-02-26T06:03:50;10.25;;;4.60;;
934;SDS011;454;53.254;10.400;2024-02-26T06:06:17;6.18;;;4.30;;
934;SDS011;454;53.254;10.400;2024-02-26T06:08:44;4.28;;;3.97;;
934;SDS011;454;53.254;10.400;2024-02-26T06:11:12;4.32;;;3.97;;
934;SDS011;454;53.254;10.400;2024-02-26T06:13:39;9.70;;;4.57;;
934;SDS011;454;53.254;10.400;2024-02-26T06:16:07;5.88;;;2.97;;
934;SDS011;454;53.254;10.400;2024-02-26T06:18:34;6.82;;;4.00;;
934;SDS011;454;53.254;10.400;2024-02-26T06:21:01;4.38;;;3.80;;
934;SDS011;454;53.254;10.400;2024-02-26T06:23:28;4.40;;;4.07;;
934;SDS011;454;53.254;10.400;2024-02-26T06:25:55;5.13;;;4.70;;
934;SDS011;454;53.254;10.400;2024-02-26T06:28:23;4.25;;;3.30;;
934;SDS011;454;53.254;10.400;2024-02-26T06:30:50;4.70;;;4.30;;
934;SDS011;454;53.254;10.400;2024-02-26T06:33:17;2.92;;;2.65;;
934;SDS011;454;53.254;10.400;2024-02-26T06:35:44;3.83;;;3.63;;
934;SDS011;454;53.254;10.400;2024-02-26T06:38:10;4.25;;;3.72;;
934;SDS011;454;53.254;10.400;2024-02-26T06:40:38;3.97;;;3.67;;
934;SDS011;454;53.254;10.400;2024-02-26T06:43:05;5.38;;;4.53;;
934;SDS011;454;53.254;10.400;2024-02-26T06:45:33;3.35;;;3.15;;
934;SDS011;454;53.254;10.400;2024-02-26T06:48:00;5.65;;;5.03;;
934;SDS011;454;53.254;10.400;2024-02-26T06:50:27;4.38;;;4.07;;
934;SDS011;454;53.254;10.400;2024-02-26T06:52:54;4.18;;;3.60;;
934;SDS011;454;53.254;10.400;2024-02-26T06:55:21;6.18;;;4.25;;
934;SDS011;454;53.254;10.400;2024-02-26T06:57:47;10.63;;;4.40;;
934;SDS011;454;53.254;10.400;2024-02-26T07:00:14;3.90;;;3.60;;
934;SDS011;454;53.254;10.400;2024-02-26T07:02:43;5.53;;;5.05;;
934;SDS011;454;53.254;10.400;2024-02-26T07:05:10;3.13;;;2.97;;
934;SDS011;454;53.254;10.400;2024-02-26T07:07:37;5.85;;;3.55;;
934;SDS011;454;53.254;10.400;2024-02-26T07:10:04;3.78;;;3.58;;
934;SDS011;454;53.254;10.400;2024-02-26T07:12:31;4.63;;;4.22;;
934;SDS011;454;53.254;10.400;2024-02-26T07:14:58;4.78;;;4.38;;
934;SDS011;454;53.254;10.400;2024-02-26T07:17:25;3.60;;;3.30;;
934;SDS011;454;53.254;10.400;2024-02-26T07:19:53;3.10;;;2.90;;
934;SDS011;454;53.254;10.400;2024-02-26T07:22:20;3.67;;;3.38;;
934;SDS011;454;53.254;10.400;2024-02-26T07:24:47;7.55;;;3.60;;
934;SDS011;454;53.254;10.400;2024-02-26T07:27:13;4.13;;;3.30;;
934;SDS011;454;53.254;10.400;2024-02-26T07:29:42;3.67;;;3.35;;
934;SDS011;454;53.254;10.400;2024-02-26T07:32:09;5.05;;;4.00;;
934;SDS011;454;53.254;10.400;2024-02-26T07:34:36;3.20;;;3.00;;
934;SDS011;454;53.254;10.400;2024-02-26T07:37:07;3.50;;;3.28;;
934;SDS011;454;53.254;10.400;2024-02-26T07:39:34;3.75;;;3.50;;
934;SDS011;454;53.254;10.400;2024-02-26T07:42:02;5.43;;;4.90;;
934;SDS011;454;53.254;10.400;2024-02-26T07:44:29;4.95;;;4.47;;
934;SDS011;454;53.254;10.400;2024-02-26T07:46:55;5.20;;;4.78;;
934;SDS011;454;53.254;10.400;2024-02-26T07:49:22;4.85;;;4.55;;
934;SDS011;454;53.254;10.400;2024-02-26T07:51:49;6.05;;;5.28;;
934;SDS011;454;53.254;10.400;2024-02-26T07:54:17;5.30;;;5.00;;
934;SDS011;454;53.254;10.400;2024-02-26T07:56:44;4.53;;;4.10;;
934;SDS011;454;53.254;10.400;2024-02-26T07:59:11;5.18;;;4.55;;
934;SDS011;454;53.254;10.400;2024-02-26T08:01:38;6.07;;;5.45;;
934;SDS011;454;53.254;10.400;2024-02-26T08:04:06;9.15;;;4.65;;
934;SDS011;454;53.254;10.400;2024-02-26T08:06:33;4.20;;;3.72;;
934;SDS011;454;53.254;10.400;2024-02-26T08:09:00;5.85;;;5.35;;
934;SDS011;454;53.254;10.400;2024-02-26T08:11:28;6.35;;;5.90;;
934;SDS011;454;53.254;10.400;2024-02-26T08:13:55;4.90;;;4.47;;
934;SDS011;454;53.254;10.400;2024-02-26T08:16:21;5.20;;;4.80;;
934;SDS011;454;53.254;10.400;2024-02-26T08:18:48;5.22;;;4.85;;
934;SDS011;454;53.254;10.400;2024-02-26T08:21:15;5.03;;;4.03;;
934;SDS011;454;53.254;10.400;2024-02-26T08:23:42;5.55;;;5.00;;
934;SDS011;454;53.254;10.400;2024-02-26T08:26:09;4.80;;;4.20;;
934;SDS011;454;53.254;10.400;2024-02-26T08:28:38;4.40;;;4.13;;
934;SDS011;454;53.254;10.400;2024-02-26T08:31:05;5.45;;;5.18;;
934;SDS011;454;53.254;10.400;2024-02-26T08:33:32;4.00;;;3.70;;
934;SDS011;454;53.254;10.400;2024-02-26T08:36:03;4.05;;;3.70;;
934;SDS011;454;53.254;10.400;2024-02-26T08:38:30;4.55;;;4.22;;
934;SDS011;454;53.254;10.400;2024-02-26T08:40:57;5.55;;;5.05;;
934;SDS011;454;53.254;10.400;2024-02-26T08:43:24;4.65;;;4.32;;
934;SDS011;454;53.254;10.400;2024-02-26T08:45:52;5.72;;;5.22;;
934;SDS011;454;53.254;10.400;2024-02-26T08:48:19;3.88;;;3.55;;
934;SDS011;454;53.254;10.400;2024-02-26T08:50:45;5.57;;;5.05;;
934;SDS011;454;53.254;10.400;2024-02-26T08:53:12;4.32;;;4.13;;
934;SDS011;454;53.254;10.400;2024-02-26T08:55:39;4.32;;;3.92;;
934;SDS011;454;53.254;10.400;2024-02-26T08:58:05;4.90;;;4.35;;
934;SDS011;454;53.254;10.400;2024-02-26T09:00:32;3.25;;;3.05;;
934;SDS011;454;53.254;10.400;2024-02-26T09:03:00;3.40;;;3.10;;
934;SDS011;454;53.254;10.400;2024-02-26T09:05:27;6.90;;;3.70;;
934;SDS011;454;53.254;10.400;2024-02-26T09:07:54;5.38;;;3.60;;
934;SDS011;454;53.254;10.400;2024-02-26T09:10:20;9.25;;;4.07;;
934;SDS011;454;53.254;10.400;2024-02-26T09:12:47;6.57;;;5.82;;
934;SDS011;454;53.254;10.400;2024-02-26T09:15:14;4.20;;;3.90;;
934;SDS011;454;53.254;10.400;2024-02-26T09:17:40;7.65;;;4.10;;
934;SDS011;454;53.254;10.400;2024-02-26T09:20:09;6.82;;;6.18;;
934;SDS011;454;53.254;10.400;2024-02-26T09:22:36;8.30;;;4.80;;
934;SDS011;454;53.254;10.400;2024-02-26T09:25:04;6.03;;;5.63;;
934;SDS011;454;53.254;10.400;2024-02-26T09:27:31;5.35;;;4.63;;
934;SDS011;454;53.254;10.400;2024-02-26T09:29:58;8.80;;;5.70;;
934;SDS011;454;53.254;10.400;2024-02-26T09:32:24;5.20;;;4.80;;
934;SDS011;454;53.254;10.400;2024-02-26T09:34:51;4.10;;;3.90;;
934;SDS011;454;53.254;10.400;2024-02-26T09:37:19;5.20;;;4.75;;
934;SDS011;454;53.254;10.400;2024-02-26T09:39:46;5.68;;;5.03;;
934;SDS011;454;53.254;10.400;2024-02-26T09:42:13;6.15;;;5.28;;
934;SDS011;454;53.254;10.400;2024-02-26T09:44:40;4.18;;;3.80;;
934;SDS011;454;53.254;10.400;2024-02-26T09:47:07;5.25;;;4.80;;
934;SDS011;454;53.254;10.400;2024-02-26T09:49:38;4.68;;;4.32;;
934;SDS011;454;53.254;10.400;2024-02-26T09:52:05;5.15;;;4.43;;
934;SDS011;454;53.254;10.400;2024-02-26T09:54:35;5.78;;;5.28;;
934;SDS011;454;53.254;10.400;2024-02-26T09:57:04;7.45;;;4.97;;
934;SDS011;454;53.254;10.400;2024-02-26T09:59:39;5.20;;;4.07;;
934;SDS011;454;53.254;10.400;2024-02-26T10:02:08;4.70;;;4.30;;
934;SDS011;454;53.254;10.400;2024-02-26T10:04:37;7.60;;;4.97;;
934;SDS011;454;53.254;10.400;2024-02-26T10:07:05;6.00;;;5.45;;
934;SDS011;454;53.254;10.400;2024-02-26T10:09:38;5.05;;;4.70;;
934;SDS011;454;53.254;10.400;2024-02-26T10:12:07;5.00;;;4.63;;
934;SDS011;454;53.254;10.400;2024-02-26T10:14:36;6.05;;;5.43;;
934;SDS011;454;53.254;10.400;2024-02-26T10:17:03;5.13;;;4.82;;
934;SDS011;454;53.254;10.400;2024-02-26T10:19:34;5.63;;;5.10;;
934;SDS011;454;53.254;10.400;2024-02-26T10:22:01;5.88;;;5.38;;
934;SDS011;454;53.254;10.400;2024-02-26T10:24:28;4.03;;;3.83;;
934;SDS011;454;53.254;10.400;2024-02-26T10:26:57;5.13;;;4.72;;
934;SDS011;454;53.254;10.400;2024-02-26T10:29:24;4.93;;;4.53;;
934;SDS011;454;53.254;10.400;2024-02-26T10:31:52;4.68;;;4.28;;
934;SDS011;454;53.254;10.400;2024-02-26T10:34:19;5.90;;;4.57;;
934;SDS011;454;53.254;10.400;2024-02-26T10:36:46;5.00;;;4.70;;
934;SDS011;454;53.254;10.400;2024-02-26T10:39:13;4.78;;;4.45;;
934;SDS011;454;53.254;10.400;2024-02-26T10:41:41;4.75;;;4.35;;
934;SDS011;454;53.254;10.400;2024-02-26T10:44:10;6.97;;;4.40;;
934;SDS011;454;53.254;10.400;2024-02-26T10:46:37;4.72;;;4.32;;
934;SDS011;454;53.254;10.400;2024-02-26T10:49:08;2.45;;;2.35;;
934;SDS011;454;53.254;10.400;2024-02-26T10:51:40;5.88;;;3.97;;
934;SDS011;454;53.254;10.400;2024-02-26T10:54:09;4.63;;;3.97;;
934;SDS011;454;53.254;10.400;2024-02-26T10:56:41;4.15;;;3.85;;
934;SDS011;454;53.254;10.400;2024-02-26T10:59:10;4.72;;;4.05;;
934;SDS011;454;53.254;10.400;2024-02-26T11:01:37;4.18;;;3.72;;
934;SDS011;454;53.254;10.400;2024-02-26T11:04:06;5.15;;;4.68;;
934;SDS011;454;53.254;10.400;2024-02-26T11:06:34;4.78;;;4.55;;
934;SDS011;454;53.254;10.400;2024-02-26T11:09:01;10.18;;;4.97;;
934;SDS011;454;53.254;10.400;2024-02-26T11:11:28;3.58;;;3.40;;
934;SDS011;454;53.254;10.400;2024-02-26T11:13:56;4.03;;;3.80;;
934;SDS011;454;53.254;10.400;2024-02-26T11:16:28;5.93;;;5.53;;
934;SDS011;454;53.254;10.400;2024-02-26T11:18:56;4.20;;;3.90;;
934;SDS011;454;53.254;10.400;2024-02-26T11:21:25;4.13;;;3.92;;
934;SDS011;454;53.254;10.400;2024-02-26T11:24:03;3.80;;;3.60;;
934;SDS011;454;53.254;10.400;2024-02-26T11:26:31;2.78;;;2.67;;
934;SDS011;454;53.254;10.400;2024-02-26T11:29:00;4.18;;;3.92;;
934;SDS011;454;53.254;10.400;2024-02-26T11:31:29;2.95;;;2.85;;
934;SDS011;454;53.254;10.400;2024-02-26T11:33:56;3.33;;;3.08;;
934;SDS011;454;53.254;10.400;2024-02-26T11:36:23;4.95;;;3.95;;
934;SDS011;454;53.254;10.400;2024-02-26T11:38:50;3.67;;;3.42;;
934;SDS011;454;53.254;10.400;2024-02-26T11:41:17;2.50;;;2.40;;
934;SDS011;454;53.254;10.400;2024-02-26T11:43:49;3.15;;;3.05;;
934;SDS011;454;53.254;10.400;2024-02-26T11:46:26;2.67;;;2.67;;
934;SDS011;454;53.254;10.400;2024-02-26T11:48:56;3.22;;;3.00;;
934;SDS011;454;53.254;10.400;2024-02-26T11:51:26;2.60;;;2.50;;
934;SDS011;454;53.254;10.400;2024-02-26T11:53:54;2.90;;;2.70;;
934;SDS011;454;53.254;10.400;2024-02-26T11:56:23;2.70;;;2.50;;
934;SDS011;454;53.254;10.400;2024-02-26T11:58:58;3.33;;;3.13;;
934;SDS011;454;53.254;10.400;2024-02-26T12:01:44;2.22;;;1.85;;
934;SDS011;454;53.254;10.400;2024-02-26T12:04:13;4.38;;;3.97;;
934;SDS011;454;53.254;10.400;2024-02-26T12:06:43;2.70;;;2.60;;
934;SDS011;454;53.254;10.400;2024-02-26T12:09:13;2.13;;;2.10;;
934;SDS011;454;53.254;10.400;2024-02-26T12:11:40;2.92;;;2.83;;
934;SDS011;454;53.254;10.400;2024-02-26T12:14:08;3.00;;;2.85;;
934;SDS011;454;53.254;10.400;2024-02-26T12:16:35;2.35;;;2.35;;
934;SDS011;454;53.254;10.400;2024-02-26T12:19:08;2.45;;;2.35;;
934;SDS011;454;53.254;10.400;2024-02-26T12:21:36;2.17;;;2.08;;
934;SDS011;454;53.254;10.400;2024-02-26T12:24:06;2.00;;;1.90;;
934;SDS011;454;53.254;10.400;2024-02-26T12:26:36;2.63;;;2.53;;
934;SDS011;454;53.254;10.400;2024-02-26T12:29:03;1.95;;;1.85;;
934;SDS011;454;53.254;10.400;2024-02-26T12:31:30;2.47;;;2.38;;
934;SDS011;454;53.254;10.400;2024-02-26T12:34:03;2.60;;;2.50;;
934;SDS011;454;53.254;10.400;2024-02-26T12:36:32;1.88;;;1.70;;
934;SDS011;454;53.254;10.400;2024-02-26T12:39:00;2.78;;;2.58;;
934;SDS011;454;53.254;10.400;2024-02-26T12:41:28;3.83;;;3.53;;
934;SDS011;454;53.254;10.400;2024-02-26T12:43:55;2.08;;;2.00;;
934;SDS011;454;53.254;10.400;2024-02-26T12:46:23;2.20;;;1.90;;
934;SDS011;454;53.254;10.400;2024-02-26T12:48:50;2.83;;;2.63;;
934;SDS011;454;53.254;10.400;2024-02-26T12:51:17;3.15;;;2.17;;
934;SDS011;454;53.254;10.400;2024-02-26T12:53:45;2.40;;;2.20;;
934;SDS011;454;53.254;10.400;2024-02-26T12:56:15;2.10;;;1.98;;
934;SDS011;454;53.254;10.400;2024-02-26T12:58:43;2.40;;;2.33;;
934;SDS011;454;53.254;10.400;2024-02-26T13:01:13;2.15;;;2.15;;
934;SDS011;454;53.254;10.400;2024-02-26T13:03:41;3.08;;;2.97;;
934;SDS011;454;53.254;10.400;2024-02-26T13:06:08;1.98;;;1.88;;
934;SDS011;454;53.254;10.400;2024-02-26T13:08:36;1.55;;;1.55;;
934;SDS011;454;53.254;10.400;2024-02-26T13:11:04;2.20;;;2.10;;
934;SDS011;454;53.254;10.400;2024-02-26T13:13:31;2.13;;;1.83;;
934;SDS011;454;53.254;10.400;2024-02-26T13:16:01;1.92;;;1.83;;
934;SDS011;454;53.254;10.400;2024-02-26T13:18:29;2.28;;;2.28;;
934;SDS011;454;53.254;10.400;2024-02-26T13:21:06;2.00;;;1.90;;
934;SDS011;454;53.254;10.400;2024-02-26T13:23:34;2.28;;;2.08;;
934;SDS011;454;53.254;10.400;2024-02-26T13:26:00;2.28;;;1.60;;
934;SDS011;454;53.254;10.400;2024-02-26T13:28:28;1.60;;;1.60;;
934;SDS011;454;53.254;10.400;2024-02-26T13:30:55;1.90;;;1.90;;
934;SDS011;454;53.254;10.400;2024-02-26T13:33:24;1.45;;;1.45;;
934;SDS011;454;53.254;10.400;2024-02-26T13:35:52;1.48;;;1.42;;
934;SDS011;454;53.254;10.400;2024-02-26T13:38:21;1.52;;;1.52;;
934;SDS011;454;53.254;10.400;2024-02-26T13:40:49;1.60;;;1.50;;
934;SDS011;454;53.254;10.400;2024-02-26T13:43:16;1.60;;;1.60;;
934;SDS011;454;53.254;10.400;2024-02-26T13:45:44;1.98;;;1.70;;
934;SDS011;454;53.254;10.400;2024-02-26T13:48:11;2.00;;;1.90;;
934;SDS011;454;53.254;10.400;2024-02-26T13:50:39;1.92;;;1.92;;
934;SDS011;454;53.254;10.400;2024-02-26T13:53:06;5.15;;;2.10;;
934;SDS011;454;53.254;10.400;2024-02-26T13:55:33;1.88;;;1.88;;
934;SDS011;454;53.254;10.400;2024-02-26T13:57:59;1.98;;;1.88;;
934;SDS011;454;53.254;10.400;2024-02-26T14:00:27;2.10;;;2.00;;
934;SDS011;454;53.254;10.400;2024-02-26T14:02:55;2.15;;;2.15;;
934;SDS011;454;53.254;10.400;2024-02-26T14:05:22;2.15;;;2.05;;
934;SDS011;454;53.254;10.400;2024-02-26T14:07:49;2.67;;;2.25;;
934;SDS011;454;53.254;10.400;2024-02-26T14:10:15;2.45;;;2.35;;
934;SDS011;454;53.254;10.400;2024-02-26T14:12:42;2.10;;;2.00;;
934;SDS011;454;53.254;10.400;2024-02-26T14:15:09;2.35;;;2.30;;
934;SDS011;454;53.254;10.400;2024-02-26T14:17:37;2.78;;;2.50;;
934;SDS011;454;53.254;10.400;2024-02-26T14:20:06;2.88;;;2.70;;
934;SDS011;454;53.254;10.400;2024-02-26T14:22:34;3.05;;;2.95;;
934;SDS011;454;53.254;10.400;2024-02-26T14:25:00;2.65;;;2.45;;
934;SDS011;454;53.254;10.400;2024-02-26T14:27:27;3.22;;;2.90;;
934;SDS011;454;53.254;10.400;2024-02-26T14:29:54;3.25;;;2.97;;
934;SDS011;454;53.254;10.400;2024-02-26T14:32:21;3.83;;;3.35;;
934;SDS011;454;53.254;10.400;2024-02-26T14:34:48;2.95;;;2.75;;
934;SDS011;454;53.254;10.400;2024-02-26T14:37:16;3.53;;;3.28;;
934;SDS011;454;53.254;10.400;2024-02-26T14:39:43;4.60;;;4.20;;
934;SDS011;454;53.254;10.400;2024-02-26T14:42:09;3.50;;;3.20;;
934;SDS011;454;53.254;10.400;2024-02-26T14:44:36;3.75;;;3.45;;
934;SDS011;454;53.254;10.400;2024-02-26T14:47:03;3.53;;;3.33;;
934;SDS011;454;53.254;10.400;2024-02-26T14:49:30;3.38;;;3.05;;
934;SDS011;454;53.254;10.400;2024-02-26T14:51:57;5.07;;;4.30;;
934;SDS011;454;53.254;10.400;2024-02-26T14:54:25;4.00;;;3.60;;
934;SDS011;454;53.254;10.400;2024-02-26T14:56:52;4.85;;;4.45;;
934;SDS011;454;53.254;10.400;2024-02-26T14:59:19;5.68;;;5.00;;
934;SDS011;454;53.254;10.400;2024-02-26T15:01:45;4.63;;;4.20;;
934;SDS011;454;53.254;10.400;2024-02-26T15:04:12;4.18;;;3.95;;
934;SDS011;454;53.254;10.400;2024-02-26T15:06:39;5.03;;;4.53;;
934;SDS011;454;53.254;10.400;2024-02-26T15:09:06;5.38;;;3.70;;
934;SDS011;454;53.254;10.400;2024-02-26T15:11:34;4.95;;;4.65;;
934;SDS011;454;53.254;10.400;2024-02-26T15:14:04;8.75;;;4.80;;
934;SDS011;454;53.254;10.400;2024-02-26T15:16:30;7.97;;;6.07;;
934;SDS011;454;53.254;10.400;2024-02-26T15:18:57;4.95;;;4.55;;
934;SDS011;454;53.254;10.400;2024-02-26T15:21:24;7.43;;;5.88;;
934;SDS011;454;53.254;10.400;2024-02-26T15:23:50;6.03;;;5.35;;
934;SDS011;454;53.254;10.400;2024-02-26T15:26:19;4.50;;;4.20;;
934;SDS011;454;53.254;10.400;2024-02-26T15:28:48;5.57;;;5.05;;
934;SDS011;454;53.254;10.400;2024-02-26T15:31:15;8.73;;;5.50;;
934;SDS011;454;53.254;10.400;2024-02-26T15:33:42;4.70;;;4.25;;
934;SDS011;454;53.254;10.400;2024-02-26T15:36:09;6.72;;;6.10;;
934;SDS011;454;53.254;10.400;2024-02-26T15:38:36;6.05;;;5.15;;
934;SDS011;454;53.254;10.400;2024-02-26T15:41:03;8.25;;;6.38;;
934;SDS011;454;53.254;10.400;2024-02-26T15:43:36;5.72;;;4.72;;
934;SDS011;454;53.254;10.400;2024-02-26T15:46:05;9.27;;;6.35;;
934;SDS011;454;53.254;10.400;2024-02-26T15:48:31;5.78;;;3.88;;
934;SDS011;454;53.254;10.400;2024-02-26T15:50:58;7.20;;;6.60;;
934;SDS011;454;53.254;10.400;2024-02-26T15:53:25;9.23;;;7.03;;
934;SDS011;454;53.254;10.400;2024-02-26T15:55:52;13.05;;;7.13;;
934;SDS011;454;53.254;10.400;2024-02-26T15:58:18;14.95;;;7.50;;
934;SDS011;454;53.254;10.400;2024-02-26T16:00:45;10.50;;;5.10;;
934;SDS011;454;53.254;10.400;2024-02-26T16:03:13;13.02;;;7.60;;
934;SDS011;454;53.254;10.400;2024-02-26T16:05:40;9.32;;;6.55;;
934;SDS011;454;53.254;10.400;2024-02-26T16:08:09;8.43;;;6.07;;
934;SDS011;454;53.254;10.400;2024-02-26T16:10:44;13.20;;;7.07;;
934;SDS011;454;53.254;10.400;2024-02-26T16:13:11;7.43;;;5.75;;
934;SDS011;454;53.254;10.400;2024-02-26T16:15:39;12.57;;;6.60;;
934;SDS011;454;53.254;10.400;2024-02-26T16:18:10;7.60;;;6.88;;
934;SDS011;454;53.254;10.400;2024-02-26T16:20:38;6.97;;;5.60;;
934;SDS011;454;53.254;10.400;2024-02-26T16:23:05;9.57;;;5.15;;
934;SDS011;454;53.254;10.400;2024-02-26T16:25:33;6.63;;;5.65;;
934;SDS011;454;53.254;10.400;2024-02-26T16:28:00;9.80;;;5.43;;
934;SDS011;454;53.254;10.400;2024-02-26T16:30:27;10.50;;;7.13;;
934;SDS011;454;53.254;10.400;2024-02-26T16:32:53;11.50;;;6.65;;
934;SDS011;454;53.254;10.400;2024-02-26T16:35:20;10.18;;;8.05;;
934;SDS011;454;53.254;10.400;2024-02-26T16:37:49;7.60;;;5.63;;
934;SDS011;454;53.254;10.400;2024-02-26T16:40:16;8.38;;;6.00;;
934;SDS011;454;53.254;10.400;2024-02-26T16:42:43;11.07;;;6.55;;
934;SDS011;454;53.254;10.400;2024-02-26T16:45:09;15.50;;;7.90;;
934;SDS011;454;53.254;10.400;2024-02-26T16:47:37;8.75;;;6.22;;
934;SDS011;454;53.254;10.400;2024-02-26T16:50:07;12.57;;;6.70;;
934;SDS011;454;53.254;10.400;2024-02-26T16:52:34;8.05;;;5.93;;
934;SDS011;454;53.254;10.400;2024-02-26T16:55:02;14.68;;;7.18;;
934;SDS011;454;53.254;10.400;2024-02-26T16:57:30;10.82;;;6.57;;
934;SDS011;454;53.254;10.400;2024-02-26T16:59:57;9.48;;;7.47;;
934;SDS011;454;53.254;10.400;2024-02-26T17:02:23;17.85;;;7.95;;
934;SDS011;454;53.254;10.400;2024-02-26T17:04:50;12.73;;;7.47;;
934;SDS011;454;53.254;10.400;2024-02-26T17:07:17;7.68;;;5.47;;
934;SDS011;454;53.254;10.400;2024-02-26T17:09:43;13.25;;;8.02;;
934;SDS011;454;53.254;10.400;2024-02-26T17:12:11;4.50;;;3.63;;
934;SDS011;454;53.254;10.400;2024-02-26T17:14:38;7.50;;;6.15;;
934;SDS011;454;53.254;10.400;2024-02-26T17:17:05;9.20;;;6.38;;
934;SDS011;454;53.254;10.400;2024-02-26T17:19:32;10.50;;;4.90;;
934;SDS011;454;53.254;10.400;2024-02-26T17:22:00;12.85;;;7.45;;
934;SDS011;454;53.254;10.400;2024-02-26T17:24:26;10.30;;;5.35;;
934;SDS011;454;53.254;10.400;2024-02-26T17:26:53;10.52;;;7.00;;
934;SDS011;454;53.254;10.400;2024-02-26T17:29:21;14.35;;;8.63;;
934;SDS011;454;53.254;10.400;2024-02-26T17:31:48;9.75;;;6.85;;
934;SDS011;454;53.254;10.400;2024-02-26T17:34:15;11.73;;;8.45;;
934;SDS011;454;53.254;10.400;2024-02-26T17:36:41;13.23;;;7.80;;
934;SDS011;454;53.254;10.400;2024-02-26T17:39:08;13.00;;;7.60;;
934;SDS011;454;53.254;10.400;2024-02-26T17:41:35;14.35;;;6.70;;
934;SDS011;454;53.254;10.400;2024-02-26T17:44:03;8.05;;;5.75;;
934;SDS011;454;53.254;10.400;2024-02-26T17:46:31;11.80;;;7.57;;
934;SDS011;454;53.254;10.400;2024-02-26T17:48:58;10.65;;;6.90;;
934;SDS011;454;53.254;10.400;2024-02-26T17:51:25;11.70;;;4.85;;
934;SDS011;454;53.254;10.400;2024-02-26T17:53:51;5.80;;;4.70;;
934;SDS011;454;53.254;10.400;2024-02-26T17:56:19;9.85;;;4.70;;
934;SDS011;454;53.254;10.400;2024-02-26T17:58:45;10.43;;;5.70;;
934;SDS011;454;53.254;10.400;2024-02-26T18:01:12;10.15;;;7.10;;
934;SDS011;454;53.254;10.400;2024-02-26T18:03:40;7.13;;;5.78;;
934;SDS011;454;53.254;10.400;2024-02-26T18:06:07;9.07;;;5.63;;
934;SDS011;454;53.254;10.400;2024-02-26T18:08:33;12.80;;;7.07;;
934;SDS011;454;53.254;10.400;2024-02-26T18:11:00;9.98;;;7.53;;
934;SDS011;454;53.254;10.400;2024-02-26T18:13:27;6.63;;;5.97;;
934;SDS011;454;53.254;10.400;2024-02-26T18:15:54;8.65;;;7.05;;
934;SDS011;454;53.254;10.400;2024-02-26T18:18:22;7.38;;;6.65;;
934;SDS011;454;53.254;10.400;2024-02-26T18:20:50;10.35;;;5.68;;
934;SDS011;454;53.254;10.400;2024-02-26T18:23:17;15.80;;;6.10;;
934;SDS011;454;53.254;10.400;2024-02-26T18:25:43;12.82;;;5.28;;
934;SDS011;454;53.254;10.400;2024-02-26T18:28:10;13.05;;;9.32;;
934;SDS011;454;53.254;10.400;2024-02-26T18:30:37;10.73;;;8.38;;
934;SDS011;454;53.254;10.400;2024-02-26T18:33:07;13.38;;;8.20;;
934;SDS011;454;53.254;10.400;2024-02-26T18:35:34;11.85;;;7.50;;
934;SDS011;454;53.254;10.400;2024-02-26T18:38:02;13.20;;;6.57;;
934;SDS011;454;53.254;10.400;2024-02-26T18:40:29;11.43;;;9.13;;
934;SDS011;454;53.254;10.400;2024-02-26T18:42:56;14.27;;;7.90;;
934;SDS011;454;53.254;10.400;2024-02-26T18:45:23;13.48;;;8.30;;
934;SDS011;454;53.254;10.400;2024-02-26T18:47:50;6.55;;;4.55;;
934;SDS011;454;53.254;10.400;2024-02-26T18:50:17;12.38;;;7.88;;
934;SDS011;454;53.254;10.400;2024-02-26T18:52:43;15.32;;;8.63;;
934;SDS011;454;53.254;10.400;2024-02-26T18:55:12;8.30;;;6.72;;
934;SDS011;454;53.254;10.400;2024-02-26T18:57:39;4.25;;;4.00;;
934;SDS011;454;53.254;10.400;2024-02-26T19:00:07;11.65;;;6.63;;
934;SDS011;454;53.254;10.400;2024-02-26T19:02:34;14.00;;;8.20;;
934;SDS011;454;53.254;10.400;2024-02-26T19:05:01;10.52;;;7.43;;
934;SDS011;454;53.254;10.400;2024-02-26T19:07:28;10.32;;;6.55;;
934;SDS011;454;53.254;10.400;2024-02-26T19:09:54;16.55;;;6.85;;
934;SDS011;454;53.254;10.400;2024-02-26T19:12:22;13.18;;;6.38;;
934;SDS011;454;53.254;10.400;2024-02-26T19:14:49;10.15;;;6.68;;
934;SDS011;454;53.254;10.400;2024-02-26T19:17:16;8.00;;;5.35;;
934;SDS011;454;53.254;10.400;2024-02-26T19:19:43;12.43;;;8.43;;
934;SDS011;454;53.254;10.400;2024-02-26T19:22:09;11.68;;;8.20;;
934;SDS011;454;53.254;10.400;2024-02-26T19:24:36;11.45;;;7.20;;
934;SDS011;454;53.254;10.400;2024-02-26T19:27:03;8.52;;;6.53;;
934;SDS011;454;53.254;10.400;2024-02-26T19:29:31;7.25;;;5.80;;
934;SDS011;454;53.254;10.400;2024-02-26T19:32:00;13.07;;;7.63;;
934;SDS011;454;53.254;10.400;2024-02-26T19:34:28;13.38;;;6.38;;
934;SDS011;454;53.254;10.400;2024-02-26T19:36:54;13.27;;;6.18;;
934;SDS011;454;53.254;10.400;2024-02-26T19:39:21;10.82;;;6.07;;
934;SDS011;454;53.254;10.400;2024-02-26T19:41:48;14.32;;;7.80;;
934;SDS011;454;53.254;10.400;2024-02-26T19:44:14;12.00;;;6.82;;
934;SDS011;454;53.254;10.400;2024-02-26T19:46:42;14.02;;;6.97;;
934;SDS011;454;53.254;10.400;2024-02-26T19:49:09;10.65;;;6.40;;
934;SDS011;454;53.254;10.400;2024-02-26T19:51:36;11.35;;;5.93;;
934;SDS011;454;53.254;10.400;2024-02-26T19:54:03;10.32;;;6.30;;
934;SDS011;454;53.254;10.400;2024-02-26T19:56:30;11.25;;;7.72;;
934;SDS011;454;53.254;10.400;2024-02-26T19:58:59;7.60;;;5.78;;
934;SDS011;454;53.254;10.400;2024-02-26T20:01:25;9.23;;;7.85;;
934;SDS011;454;53.254;10.400;2024-02-26T20:03:53;10.27;;;6.80;;
934;SDS011;454;53.254;10.400;2024-02-26T20:06:20;12.80;;;6.30;;
934;SDS011;454;53.254;10.400;2024-02-26T20:08:47;12.65;;;8.48;;
934;SDS011;454;53.254;10.400;2024-02-26T20:11:15;12.70;;;7.15;;
934;SDS011;454;53.254;10.400;2024-02-26T20:13:42;14.45;;;7.03;;
934;SDS011;454;53.254;10.400;2024-02-26T20:16:09;13.05;;;7.97;;
934;SDS011;454;53.254;10.400;2024-02-26T20:18:36;12.23;;;6.38;;
934;SDS011;454;53.254;10.400;2024-02-26T20:21:04;12.63;;;7.78;;
934;SDS011;454;53.254;10.400;2024-02-26T20:23:31;13.30;;;5.78;;
934;SDS011;454;53.254;10.400;2024-02-26T20:25:57;14.52;;;7.53;;
934;SDS011;454;53.254;10.400;2024-02-26T20:28:25;15.88;;;11.13;;
934;SDS011;454;53.254;10.400;2024-02-26T20:30:52;17.52;;;8.57;;